Terminal Aerodrome Forecast
Issued by NWS Hastings, NE

Home | Current Version | Previous Version | Text Only | Print | Product List | Glossary On
Versions: 1 2 3 4 5 6 7 8 9 10 11 12 13 14
000
FTUS45 KGID 271416 AAA
TAFEAR
TAF AMD
KEAR 271416Z 2714/2812 27010KT P6SM FEW025 SCT200 WS005/34035KT
     FM271600 29008KT P6SM SKC
     FM272300 24006KT P6SM SKC
      AMD LTD TO CLD VIS AND WIND=

USA.gov is the U.S. government's official web portal to all federal, state and local government web resources and services.